sensor_id;sensor_type;location;lat;lon;timestamp;P1;durP1;ratioP1;P2;durP2;ratioP2
20154;SDS011;10238;49.556;10.956;2023-07-09T10:56:19;4.65;;;3.90;;
20154;SDS011;10238;49.556;10.956;2023-07-09T10:59:12;7.70;;;5.32;;
20154;SDS011;10238;49.556;10.956;2023-07-09T11:02:15;6.80;;;4.25;;
20154;SDS011;10238;49.556;10.956;2023-07-09T11:05:08;6.15;;;4.40;;
20154;SDS011;10238;49.556;10.956;2023-07-09T11:07:58;10.23;;;9.52;;
20154;SDS011;10238;49.556;10.956;2023-07-09T11:10:51;8.43;;;7.63;;
20154;SDS011;10238;49.556;10.956;2023-07-09T11:13:44;10.52;;;9.63;;
20154;SDS011;10238;49.556;10.956;2023-07-09T11:16:38;10.77;;;9.90;;
20154;SDS011;10238;49.556;10.956;2023-07-09T11:19:28;11.23;;;10.43;;
20154;SDS011;10238;49.556;10.956;2023-07-09T11:22:17;9.65;;;8.88;;
20154;SDS011;10238;49.556;10.956;2023-07-09T11:25:09;6.75;;;6.20;;
20154;SDS011;10238;49.556;10.956;2023-07-09T11:28:03;6.07;;;5.50;;
20154;SDS011;10238;49.556;10.956;2023-07-09T11:30:54;5.20;;;4.70;;
20154;SDS011;10238;49.556;10.956;2023-07-09T11:34:02;5.57;;;4.70;;
20154;SDS011;10238;49.556;10.956;2023-07-09T11:37:24;7.78;;;4.30;;
20154;SDS011;10238;49.556;10.956;2023-07-09T11:40:13;8.88;;;4.15;;
20154;SDS011;10238;49.556;10.956;2023-07-09T11:43:04;21.83;;;4.88;;
20154;SDS011;10238;49.556;10.956;2023-07-09T11:46:11;14.85;;;4.43;;
20154;SDS011;10238;49.556;10.956;2023-07-09T11:49:04;14.20;;;4.95;;
20154;SDS011;10238;49.556;10.956;2023-07-09T11:51:55;10.32;;;5.03;;
20154;SDS011;10238;49.556;10.956;2023-07-09T11:54:55;8.32;;;5.00;;
20154;SDS011;10238;49.556;10.956;2023-07-09T11:57:46;9.88;;;6.13;;
20154;SDS011;10238;49.556;10.956;2023-07-09T12:00:44;7.05;;;6.30;;
20154;SDS011;10238;49.556;10.956;2023-07-09T12:03:37;6.38;;;5.75;;
20154;SDS011;10238;49.556;10.956;2023-07-09T12:06:29;8.43;;;5.18;;
20154;SDS011;10238;49.556;10.956;2023-07-09T12:09:20;8.07;;;5.70;;
20154;SDS011;10238;49.556;10.956;2023-07-09T12:12:24;10.07;;;6.60;;
20154;SDS011;10238;49.556;10.956;2023-07-09T12:15:16;5.60;;;5.07;;
20154;SDS011;10238;49.556;10.956;2023-07-09T12:18:10;7.90;;;6.30;;
20154;SDS011;10238;49.556;10.956;2023-07-09T12:24:17;6.60;;;4.65;;
20154;SDS011;10238;49.556;10.956;2023-07-09T12:30:13;6.95;;;4.75;;
20154;SDS011;10238;49.556;10.956;2023-07-09T12:33:01;6.43;;;5.18;;
20154;SDS011;10238;49.556;10.956;2023-07-09T12:35:56;6.40;;;4.43;;
20154;SDS011;10238;49.556;10.956;2023-07-09T12:38:48;6.33;;;5.37;;
20154;SDS011;10238;49.556;10.956;2023-07-09T12:41:38;7.25;;;4.05;;
20154;SDS011;10238;49.556;10.956;2023-07-09T12:44:29;7.07;;;4.28;;
20154;SDS011;10238;49.556;10.956;2023-07-09T12:47:24;5.07;;;3.75;;
20154;SDS011;10238;49.556;10.956;2023-07-09T12:50:17;5.70;;;4.03;;
20154;SDS011;10238;49.556;10.956;2023-07-09T12:53:13;4.90;;;3.85;;
20154;SDS011;10238;49.556;10.956;2023-07-09T12:56:07;6.97;;;4.00;;
20154;SDS011;10238;49.556;10.956;2023-07-09T12:59:00;7.10;;;3.78;;
20154;SDS011;10238;49.556;10.956;2023-07-09T13:02:01;4.60;;;3.90;;
20154;SDS011;10238;49.556;10.956;2023-07-09T13:05:02;8.13;;;3.67;;
20154;SDS011;10238;49.556;10.956;2023-07-09T13:07:52;6.32;;;3.97;;
20154;SDS011;10238;49.556;10.956;2023-07-09T13:10:41;5.93;;;4.03;;
20154;SDS011;10238;49.556;10.956;2023-07-09T13:13:31;5.10;;;3.63;;
20154;SDS011;10238;49.556;10.956;2023-07-09T13:16:19;5.97;;;3.70;;
20154;SDS011;10238;49.556;10.956;2023-07-09T13:19:07;7.25;;;4.32;;
20154;SDS011;10238;49.556;10.956;2023-07-09T13:21:55;5.05;;;3.72;;
20154;SDS011;10238;49.556;10.956;2023-07-09T13:24:44;6.25;;;3.47;;
20154;SDS011;10238;49.556;10.956;2023-07-09T13:27:32;5.22;;;3.80;;
20154;SDS011;10238;49.556;10.956;2023-07-09T13:30:22;6.32;;;4.13;;
20154;SDS011;10238;49.556;10.956;2023-07-09T13:33:10;6.87;;;4.80;;
20154;SDS011;10238;49.556;10.956;2023-07-09T13:35:58;5.13;;;4.10;;
20154;SDS011;10238;49.556;10.956;2023-07-09T13:38:46;5.90;;;4.20;;
20154;SDS011;10238;49.556;10.956;2023-07-09T13:41:35;8.20;;;4.68;;
20154;SDS011;10238;49.556;10.956;2023-07-09T13:44:25;12.98;;;4.32;;
20154;SDS011;10238;49.556;10.956;2023-07-09T13:50:19;5.32;;;3.90;;
20154;SDS011;10238;49.556;10.956;2023-07-09T13:53:11;4.90;;;4.40;;
20154;SDS011;10238;49.556;10.956;2023-07-09T13:56:08;6.47;;;4.07;;
20154;SDS011;10238;49.556;10.956;2023-07-09T13:58:57;6.03;;;4.17;;
20154;SDS011;10238;49.556;10.956;2023-07-09T14:01:45;6.75;;;4.43;;
20154;SDS011;10238;49.556;10.956;2023-07-09T14:04:35;5.35;;;4.20;;
20154;SDS011;10238;49.556;10.956;2023-07-09T14:07:27;6.18;;;4.10;;
20154;SDS011;10238;49.556;10.956;2023-07-09T14:10:17;7.40;;;4.00;;
20154;SDS011;10238;49.556;10.956;2023-07-09T14:13:08;4.85;;;3.67;;
20154;SDS011;10238;49.556;10.956;2023-07-09T14:16:00;7.72;;;4.20;;
20154;SDS011;10238;49.556;10.956;2023-07-09T14:18:48;9.10;;;4.30;;
20154;SDS011;10238;49.556;10.956;2023-07-09T14:21:38;7.10;;;4.43;;
20154;SDS011;10238;49.556;10.956;2023-07-09T14:24:27;6.07;;;4.13;;
20154;SDS011;10238;49.556;10.956;2023-07-09T14:27:17;5.93;;;4.32;;
20154;SDS011;10238;49.556;10.956;2023-07-09T14:30:06;4.03;;;3.67;;
20154;SDS011;10238;49.556;10.956;2023-07-09T14:32:56;6.53;;;4.05;;
20154;SDS011;10238;49.556;10.956;2023-07-09T14:35:44;5.13;;;3.83;;
20154;SDS011;10238;49.556;10.956;2023-07-09T14:38:34;6.82;;;4.10;;
20154;SDS011;10238;49.556;10.956;2023-07-09T14:41:22;6.32;;;3.60;;
20154;SDS011;10238;49.556;10.956;2023-07-09T14:44:18;7.30;;;4.38;;
20154;SDS011;10238;49.556;10.956;2023-07-09T14:47:10;5.65;;;4.32;;
20154;SDS011;10238;49.556;10.956;2023-07-09T14:50:02;4.68;;;3.53;;
20154;SDS011;10238;49.556;10.956;2023-07-09T14:52:50;6.97;;;4.25;;
20154;SDS011;10238;49.556;10.956;2023-07-09T14:55:40;6.35;;;4.07;;
20154;SDS011;10238;49.556;10.956;2023-07-09T14:58:28;7.00;;;3.47;;
20154;SDS011;10238;49.556;10.956;2023-07-09T15:01:23;5.18;;;4.30;;
20154;SDS011;10238;49.556;10.956;2023-07-09T15:04:22;6.63;;;4.22;;
20154;SDS011;10238;49.556;10.956;2023-07-09T15:07:16;5.00;;;4.05;;
20154;SDS011;10238;49.556;10.956;2023-07-09T15:10:04;7.70;;;4.25;;
20154;SDS011;10238;49.556;10.956;2023-07-09T15:12:54;5.57;;;4.38;;
20154;SDS011;10238;49.556;10.956;2023-07-09T15:15:43;6.35;;;4.50;;
20154;SDS011;10238;49.556;10.956;2023-07-09T15:18:32;5.10;;;3.80;;
20154;SDS011;10238;49.556;10.956;2023-07-09T15:21:22;5.65;;;4.43;;
20154;SDS011;10238;49.556;10.956;2023-07-09T15:24:10;4.57;;;3.83;;
20154;SDS011;10238;49.556;10.956;2023-07-09T15:27:01;4.60;;;4.10;;
20154;SDS011;10238;49.556;10.956;2023-07-09T15:29:52;5.80;;;4.10;;
20154;SDS011;10238;49.556;10.956;2023-07-09T15:32:40;5.70;;;4.32;;
20154;SDS011;10238;49.556;10.956;2023-07-09T15:35:31;4.65;;;4.22;;
20154;SDS011;10238;49.556;10.956;2023-07-09T15:38:25;6.38;;;4.60;;
20154;SDS011;10238;49.556;10.956;2023-07-09T15:41:14;5.18;;;4.45;;
20154;SDS011;10238;49.556;10.956;2023-07-09T15:44:03;7.65;;;4.00;;
20154;SDS011;10238;49.556;10.956;2023-07-09T15:46:53;5.82;;;4.38;;
20154;SDS011;10238;49.556;10.956;2023-07-09T15:49:43;5.82;;;4.32;;
20154;SDS011;10238;49.556;10.956;2023-07-09T15:52:31;5.38;;;4.20;;
20154;SDS011;10238;49.556;10.956;2023-07-09T15:55:19;9.40;;;4.32;;
20154;SDS011;10238;49.556;10.956;2023-07-09T15:58:14;11.65;;;4.65;;
20154;SDS011;10238;49.556;10.956;2023-07-09T16:01:06;6.30;;;5.68;;
20154;SDS011;10238;49.556;10.956;2023-07-09T16:03:59;8.90;;;5.90;;
20154;SDS011;10238;49.556;10.956;2023-07-09T16:06:54;7.82;;;5.88;;
20154;SDS011;10238;49.556;10.956;2023-07-09T16:09:43;8.18;;;5.75;;
20154;SDS011;10238;49.556;10.956;2023-07-09T16:12:32;6.95;;;5.72;;
20154;SDS011;10238;49.556;10.956;2023-07-09T16:15:21;9.40;;;5.88;;
20154;SDS011;10238;49.556;10.956;2023-07-09T16:18:10;5.68;;;4.93;;
20154;SDS011;10238;49.556;10.956;2023-07-09T16:20:59;8.88;;;6.20;;
20154;SDS011;10238;49.556;10.956;2023-07-09T16:23:47;8.70;;;6.85;;
20154;SDS011;10238;49.556;10.956;2023-07-09T16:26:35;6.03;;;5.35;;
20154;SDS011;10238;49.556;10.956;2023-07-09T16:29:24;7.15;;;5.82;;
20154;SDS011;10238;49.556;10.956;2023-07-09T16:32:13;7.13;;;5.38;;
20154;SDS011;10238;49.556;10.956;2023-07-09T16:35:01;6.53;;;5.80;;
20154;SDS011;10238;49.556;10.956;2023-07-09T16:37:51;6.68;;;5.97;;
20154;SDS011;10238;49.556;10.956;2023-07-09T16:40:39;6.60;;;5.78;;
20154;SDS011;10238;49.556;10.956;2023-07-09T16:43:27;7.72;;;4.97;;
20154;SDS011;10238;49.556;10.956;2023-07-09T16:46:15;8.80;;;6.18;;
20154;SDS011;10238;49.556;10.956;2023-07-09T16:49:13;6.60;;;6.00;;
20154;SDS011;10238;49.556;10.956;2023-07-09T16:52:12;6.63;;;6.03;;
20154;SDS011;10238;49.556;10.956;2023-07-09T16:55:03;7.28;;;5.78;;
20154;SDS011;10238;49.556;10.956;2023-07-09T16:57:53;6.90;;;6.17;;
20154;SDS011;10238;49.556;10.956;2023-07-09T17:00:42;7.45;;;6.55;;
20154;SDS011;10238;49.556;10.956;2023-07-09T17:03:30;7.00;;;6.30;;
20154;SDS011;10238;49.556;10.956;2023-07-09T17:06:19;8.27;;;6.53;;
20154;SDS011;10238;49.556;10.956;2023-07-09T17:09:07;7.30;;;6.60;;
20154;SDS011;10238;49.556;10.956;2023-07-09T17:11:57;7.00;;;6.30;;
20154;SDS011;10238;49.556;10.956;2023-07-09T17:17:34;7.35;;;6.47;;
20154;SDS011;10238;49.556;10.956;2023-07-09T17:20:22;7.82;;;7.03;;
20154;SDS011;10238;49.556;10.956;2023-07-09T17:23:12;7.30;;;6.60;;
20154;SDS011;10238;49.556;10.956;2023-07-09T17:26:00;7.38;;;6.55;;
20154;SDS011;10238;49.556;10.956;2023-07-09T17:28:50;10.02;;;6.85;;
20154;SDS011;10238;49.556;10.956;2023-07-09T17:31:38;6.95;;;6.28;;
20154;SDS011;10238;49.556;10.956;2023-07-09T17:34:26;10.85;;;5.65;;
20154;SDS011;10238;49.556;10.956;2023-07-09T17:37:15;6.80;;;4.85;;
20154;SDS011;10238;49.556;10.956;2023-07-09T17:40:05;8.60;;;5.07;;
20154;SDS011;10238;49.556;10.956;2023-07-09T17:43:23;10.98;;;5.57;;
20154;SDS011;10238;49.556;10.956;2023-07-09T17:46:13;8.38;;;5.50;;
20154;SDS011;10238;49.556;10.956;2023-07-09T17:49:03;11.40;;;6.80;;
20154;SDS011;10238;49.556;10.956;2023-07-09T17:51:54;14.82;;;8.45;;
20154;SDS011;10238;49.556;10.956;2023-07-09T17:54:43;11.60;;;6.85;;
20154;SDS011;10238;49.556;10.956;2023-07-09T17:57:31;6.88;;;5.35;;
20154;SDS011;10238;49.556;10.956;2023-07-09T18:00:21;12.05;;;6.07;;
20154;SDS011;10238;49.556;10.956;2023-07-09T18:03:12;12.95;;;6.15;;
20154;SDS011;10238;49.556;10.956;2023-07-09T18:06:01;14.73;;;5.80;;
20154;SDS011;10238;49.556;10.956;2023-07-09T18:08:50;16.20;;;5.68;;
20154;SDS011;10238;49.556;10.956;2023-07-09T18:11:38;11.07;;;6.00;;
20154;SDS011;10238;49.556;10.956;2023-07-09T18:14:30;11.95;;;5.43;;
20154;SDS011;10238;49.556;10.956;2023-07-09T18:17:24;13.85;;;5.68;;
20154;SDS011;10238;49.556;10.956;2023-07-09T18:20:19;8.00;;;5.60;;
20154;SDS011;10238;49.556;10.956;2023-07-09T18:25:56;13.45;;;5.47;;
20154;SDS011;10238;49.556;10.956;2023-07-09T18:28:44;12.50;;;6.63;;
20154;SDS011;10238;49.556;10.956;2023-07-09T18:31:32;10.07;;;6.03;;
20154;SDS011;10238;49.556;10.956;2023-07-09T18:34:21;8.23;;;6.22;;
20154;SDS011;10238;49.556;10.956;2023-07-09T18:37:10;9.52;;;5.70;;
20154;SDS011;10238;49.556;10.956;2023-07-09T18:39:58;14.60;;;5.45;;
20154;SDS011;10238;49.556;10.956;2023-07-09T18:42:46;10.50;;;5.82;;
20154;SDS011;10238;49.556;10.956;2023-07-09T18:45:34;10.20;;;5.78;;
20154;SDS011;10238;49.556;10.956;2023-07-09T18:48:22;11.18;;;6.30;;
20154;SDS011;10238;49.556;10.956;2023-07-09T18:51:10;13.95;;;5.28;;
20154;SDS011;10238;49.556;10.956;2023-07-09T18:54:00;9.25;;;5.20;;
20154;SDS011;10238;49.556;10.956;2023-07-09T18:56:55;10.02;;;5.10;;
20154;SDS011;10238;49.556;10.956;2023-07-09T18:59:43;11.98;;;5.63;;
20154;SDS011;10238;49.556;10.956;2023-07-09T19:02:31;12.38;;;5.65;;
20154;SDS011;10238;49.556;10.956;2023-07-09T19:05:20;9.88;;;5.03;;
20154;SDS011;10238;49.556;10.956;2023-07-09T19:08:15;10.77;;;4.97;;
20154;SDS011;10238;49.556;10.956;2023-07-09T19:11:07;14.45;;;4.80;;
20154;SDS011;10238;49.556;10.956;2023-07-09T19:13:55;11.82;;;5.10;;
20154;SDS011;10238;49.556;10.956;2023-07-09T19:16:45;11.45;;;5.18;;
20154;SDS011;10238;49.556;10.956;2023-07-09T19:19:36;16.45;;;5.28;;
20154;SDS011;10238;49.556;10.956;2023-07-09T19:22:24;13.63;;;5.57;;
20154;SDS011;10238;49.556;10.956;2023-07-09T19:25:13;20.30;;;5.40;;
20154;SDS011;10238;49.556;10.956;2023-07-09T19:28:03;12.98;;;5.45;;
20154;SDS011;10238;49.556;10.956;2023-07-09T19:30:51;14.73;;;5.95;;
20154;SDS011;10238;49.556;10.956;2023-07-09T19:33:41;11.30;;;5.90;;
20154;SDS011;10238;49.556;10.956;2023-07-09T19:36:29;13.82;;;5.78;;
20154;SDS011;10238;49.556;10.956;2023-07-09T19:39:25;10.45;;;4.97;;
20154;SDS011;10238;49.556;10.956;2023-07-09T19:42:16;17.73;;;5.32;;
20154;SDS011;10238;49.556;10.956;2023-07-09T19:45:10;12.40;;;5.35;;
20154;SDS011;10238;49.556;10.956;2023-07-09T19:47:58;16.50;;;8.30;;
20154;SDS011;10238;49.556;10.956;2023-07-09T19:50:48;14.10;;;7.25;;
20154;SDS011;10238;49.556;10.956;2023-07-09T19:53:36;15.73;;;6.68;;
20154;SDS011;10238;49.556;10.956;2023-07-09T19:56:24;13.98;;;8.93;;
20154;SDS011;10238;49.556;10.956;2023-07-09T19:59:12;19.00;;;8.52;;
20154;SDS011;10238;49.556;10.956;2023-07-09T20:02:02;17.20;;;6.45;;
20154;SDS011;10238;49.556;10.956;2023-07-09T20:05:07;11.75;;;5.70;;
20154;SDS011;10238;49.556;10.956;2023-07-09T20:08:01;9.57;;;6.10;;
20154;SDS011;10238;49.556;10.956;2023-07-09T20:11:01;14.65;;;6.13;;
20154;SDS011;10238;49.556;10.956;2023-07-09T20:13:51;11.45;;;6.10;;
20154;SDS011;10238;49.556;10.956;2023-07-09T20:16:39;11.25;;;5.35;;
20154;SDS011;10238;49.556;10.956;2023-07-09T20:19:28;10.02;;;5.13;;
20154;SDS011;10238;49.556;10.956;2023-07-09T20:22:18;9.40;;;5.75;;
20154;SDS011;10238;49.556;10.956;2023-07-09T20:25:14;10.85;;;5.53;;
20154;SDS011;10238;49.556;10.956;2023-07-09T20:28:07;12.05;;;5.53;;
20154;SDS011;10238;49.556;10.956;2023-07-09T20:31:07;12.82;;;4.97;;
20154;SDS011;10238;49.556;10.956;2023-07-09T20:34:11;10.48;;;4.95;;
20154;SDS011;10238;49.556;10.956;2023-07-09T20:37:07;9.18;;;5.13;;
20154;SDS011;10238;49.556;10.956;2023-07-09T20:39:56;9.82;;;5.07;;
20154;SDS011;10238;49.556;10.956;2023-07-09T20:42:44;13.23;;;6.63;;
20154;SDS011;10238;49.556;10.956;2023-07-09T20:45:33;15.00;;;8.63;;
20154;SDS011;10238;49.556;10.956;2023-07-09T20:48:21;13.65;;;12.13;;
20154;SDS011;10238;49.556;10.956;2023-07-09T20:51:10;16.27;;;11.18;;
20154;SDS011;10238;49.556;10.956;2023-07-09T20:53:58;10.18;;;8.77;;
20154;SDS011;10238;49.556;10.956;2023-07-09T20:56:46;9.43;;;7.90;;
20154;SDS011;10238;49.556;10.956;2023-07-09T20:59:34;12.38;;;8.63;;
20154;SDS011;10238;49.556;10.956;2023-07-09T21:02:23;10.95;;;7.85;;
20154;SDS011;10238;49.556;10.956;2023-07-09T21:05:13;10.80;;;9.68;;
20154;SDS011;10238;49.556;10.956;2023-07-09T21:08:04;16.67;;;12.20;;
20154;SDS011;10238;49.556;10.956;2023-07-09T21:11:03;13.27;;;12.27;;
20154;SDS011;10238;49.556;10.956;2023-07-09T21:13:51;10.18;;;8.20;;
20154;SDS011;10238;49.556;10.956;2023-07-09T21:16:39;10.65;;;7.95;;
20154;SDS011;10238;49.556;10.956;2023-07-09T21:19:30;9.20;;;7.10;;
20154;SDS011;10238;49.556;10.956;2023-07-09T21:22:21;10.95;;;8.02;;
20154;SDS011;10238;49.556;10.956;2023-07-09T21:25:20;9.35;;;7.25;;
20154;SDS011;10238;49.556;10.956;2023-07-09T21:28:12;9.23;;;7.15;;
20154;SDS011;10238;49.556;10.956;2023-07-09T21:31:00;7.20;;;6.50;;
20154;SDS011;10238;49.556;10.956;2023-07-09T21:33:48;7.30;;;6.60;;
20154;SDS011;10238;49.556;10.956;2023-07-09T21:36:36;12.38;;;6.43;;
20154;SDS011;10238;49.556;10.956;2023-07-09T21:39:24;8.77;;;6.43;;
20154;SDS011;10238;49.556;10.956;2023-07-09T21:42:16;9.95;;;8.18;;
20154;SDS011;10238;49.556;10.956;2023-07-09T21:45:06;10.43;;;8.05;;
20154;SDS011;10238;49.556;10.956;2023-07-09T21:47:56;9.60;;;8.65;;
20154;SDS011;10238;49.556;10.956;2023-07-09T21:50:47;9.98;;;8.95;;
20154;SDS011;10238;49.556;10.956;2023-07-09T21:53:36;9.35;;;7.75;;
20154;SDS011;10238;49.556;10.956;2023-07-09T21:56:43;10.10;;;7.50;;
20154;SDS011;10238;49.556;10.956;2023-07-09T21:59:31;14.55;;;8.15;;
20154;SDS011;10238;49.556;10.956;2023-07-09T22:02:29;14.98;;;12.82;;
20154;SDS011;10238;49.556;10.956;2023-07-09T22:05:18;14.57;;;10.77;;
20154;SDS011;10238;49.556;10.956;2023-07-09T22:08:11;14.73;;;13.35;;
20154;SDS011;10238;49.556;10.956;2023-07-09T22:11:02;18.00;;;16.70;;
20154;SDS011;10238;49.556;10.956;2023-07-09T22:14:06;17.27;;;15.73;;
20154;SDS011;10238;49.556;10.956;2023-07-09T22:17:02;17.27;;;15.55;;
20154;SDS011;10238;49.556;10.956;2023-07-09T22:19:53;15.25;;;14.13;;
20154;SDS011;10238;49.556;10.956;2023-07-09T22:22:41;16.15;;;14.85;;
20154;SDS011;10238;49.556;10.956;2023-07-09T22:25:31;11.40;;;10.30;;
20154;SDS011;10238;49.556;10.956;2023-07-09T22:28:19;10.77;;;9.70;;
20154;SDS011;10238;49.556;10.956;2023-07-09T22:31:08;11.50;;;10.15;;
20154;SDS011;10238;49.556;10.956;2023-07-09T22:33:59;13.35;;;10.00;;
20154;SDS011;10238;49.556;10.956;2023-07-09T22:36:53;8.95;;;7.15;;
20154;SDS011;10238;49.556;10.956;2023-07-09T22:39:41;11.05;;;7.55;;
20154;SDS011;10238;49.556;10.956;2023-07-09T22:42:29;10.05;;;6.50;;
20154;SDS011;10238;49.556;10.956;2023-07-09T22:45:17;10.50;;;6.85;;
20154;SDS011;10238;49.556;10.956;2023-07-09T22:48:08;9.98;;;7.10;;
20154;SDS011;10238;49.556;10.956;2023-07-09T22:51:00;9.05;;;6.50;;
20154;SDS011;10238;49.556;10.956;2023-07-09T22:53:49;9.57;;;6.57;;
20154;SDS011;10238;49.556;10.956;2023-07-09T22:56:37;8.88;;;6.22;;
20154;SDS011;10238;49.556;10.956;2023-07-09T22:59:24;11.65;;;6.95;;
20154;SDS011;10238;49.556;10.956;2023-07-09T23:02:12;7.50;;;6.05;;
20154;SDS011;10238;49.556;10.956;2023-07-09T23:05:07;8.05;;;6.60;;
20154;SDS011;10238;49.556;10.956;2023-07-09T23:07:58;8.75;;;6.78;;
20154;SDS011;10238;49.556;10.956;2023-07-09T23:10:48;10.27;;;6.97;;
20154;SDS011;10238;49.556;10.956;2023-07-09T23:13:37;10.52;;;8.05;;
20154;SDS011;10238;49.556;10.956;2023-07-09T23:16:26;8.63;;;7.35;;
20154;SDS011;10238;49.556;10.956;2023-07-09T23:19:17;9.88;;;7.20;;
20154;SDS011;10238;49.556;10.956;2023-07-09T23:22:09;10.32;;;8.30;;
20154;SDS011;10238;49.556;10.956;2023-07-09T23:24:57;8.65;;;7.80;;
20154;SDS011;10238;49.556;10.956;2023-07-09T23:27:46;9.10;;;8.15;;
20154;SDS011;10238;49.556;10.956;2023-07-09T23:30:37;11.30;;;7.88;;
20154;SDS011;10238;49.556;10.956;2023-07-09T23:33:26;9.82;;;8.25;;
20154;SDS011;10238;49.556;10.956;2023-07-09T23:36:15;9.52;;;8.50;;
20154;SDS011;10238;49.556;10.956;2023-07-09T23:39:02;9.88;;;8.82;;
20154;SDS011;10238;49.556;10.956;2023-07-09T23:41:51;8.65;;;7.82;;
20154;SDS011;10238;49.556;10.956;2023-07-09T23:44:43;16.05;;;9.32;;
20154;SDS011;10238;49.556;10.956;2023-07-09T23:47:32;13.38;;;9.65;;
20154;SDS011;10238;49.556;10.956;2023-07-09T23:50:20;10.68;;;9.30;;
20154;SDS011;10238;49.556;10.956;2023-07-09T23:53:12;13.55;;;12.25;;
20154;SDS011;10238;49.556;10.956;2023-07-09T23:56:11;11.40;;;10.23;;
20154;SDS011;10238;49.556;10.956;2023-07-09T23:59:04;11.13;;;10.13;;
